Portada
METAR-TAF:

METAR-TAF

Aeroports :

Shijiazhuang, Xina

latitud: 38-16-51N, longitud: 114-41-48E, altitud: 233 m

Observació

L'informe es va fer fa 38 minuts, a les 17:00 UTC
Vent 2 kt del Est/Sud-Est
Temperatura 4°C
Humitat 38%
Pressió 1025 hPa
Visibilitat 10 km o més
sense núvols per sota de 1500 mi sense presència de cumulonimbus.

METAR: ZBSJ 211700Z 11001MPS CAVOK 04/M09 Q1025 NOSIG

Hora: 01:38 (17:38 UTC)

Pronòstic

L'informe es va fer fa 3 hores i 37 minuts, a les 14:01 UTC
Pronòstic vàlid del 21 a les 18 UTC al 22 a les 18 UTC
Vent 8 kt del Sud
Visibilitat 10 km o més
sense núvols per sota de 1500 mi sense presència de cumulonimbus.

TAF: ZBSJ 211401Z 2118/2218 18004MPS CAVOK TX16/2206Z TN03/2121Z

Observacions i pronòstics meteorològics de més de 4000 aeroports (METAR i TAF).

Les estacions disponibles són els punts grocs i vermells al mapa.

Posi el ratolí al punt desitjat per veure el nom de l'estació.

Feu clic per veure les observacions i els pronòstics meteorològics.

Per canviar el mapa: feu clic els botons verds amb una creu de color negre per apropar; al botó verd amb un guió per allunyar la imatge; o en les fletxes verdes per a mapes adjacents.


METAR-TAF: